Time;durP1;ratioP1;P1;durP2;ratioP2;P2;SDS_P1;SDS_P2;PMS_P1;PMS_P2;Temp;Humidity;BMP_temperature;BMP_pressure;BME280_temperature;BME280_humidity;BME280_pressure;Samples;Min_cycle;Max_cycle;Signal;HPM_P1;HPM_P2
2024/04/15 00:01:21;;;;;;;;;3.00;1.33;;;;;;;;5502884;25;44710;-76
2024/04/15 00:03:46;;;;;;;;;1.33;1.33;;;;;;;;5502935;25;43743;-76
2024/04/15 00:06:12;;;;;;;;;5.33;2.00;;;;;;;;5503253;25;43734;-76
2024/04/15 00:08:37;;;;;;;;;1.33;1.33;;;;;;;;5502803;25;43910;-76
2024/04/15 00:11:03;;;;;;;;;1.00;1.00;;;;;;;;5501970;25;44730;-75
2024/04/15 00:13:28;;;;;;;;;2.00;2.00;;;;;;;;5503378;25;43852;-75
2024/04/15 00:15:56;;;;;;;;;2.00;2.00;;;;;;;;5502921;25;44170;-75
2024/04/15 00:18:22;;;;;;;;;3.33;2.33;;;;;;;;5502833;25;43904;-75
2024/04/15 00:20:47;;;;;;;;;2.00;2.00;;;;;;;;5502724;25;43814;-75
2024/04/15 00:23:12;;;;;;;;;2.33;1.00;;;;;;;;5502220;25;43986;-75
2024/04/15 00:25:38;;;;;;;;;2.00;2.00;;;;;;;;5502216;25;43956;-75
2024/04/15 00:28:03;;;;;;;;;1.67;1.67;;;;;;;;5502697;25;43791;-75
2024/04/15 00:30:28;;;;;;;;;1.67;1.00;;;;;;;;5502618;25;44044;-75
2024/04/15 00:32:53;;;;;;;;;2.00;2.00;;;;;;;;5502622;25;43776;-75
2024/04/15 00:35:19;;;;;;;;;3.33;2.33;;;;;;;;5502695;25;43920;-75
2024/04/15 00:37:44;;;;;;;;;3.00;2.00;;;;;;;;5502657;25;43865;-76
2024/04/15 00:40:10;;;;;;;;;2.67;2.67;;;;;;;;5502161;25;43899;-75
2024/04/15 00:42:35;;;;;;;;;3.00;1.00;;;;;;;;5502030;25;43715;-76
2024/04/15 00:45:00;;;;;;;;;2.00;2.00;;;;;;;;5501330;25;44098;-76
2024/04/15 00:47:25;;;;;;;;;1.67;1.00;;;;;;;;5502009;25;44126;-75
2024/04/15 00:49:51;;;;;;;;;3.00;1.33;;;;;;;;5501933;25;43973;-75
2024/04/15 00:52:16;;;;;;;;;1.00;1.00;;;;;;;;5502200;25;43756;-75
2024/04/15 00:54:43;;;;;;;;;2.00;1.00;;;;;;;;5501929;25;44014;-76
2024/04/15 00:57:08;;;;;;;;;2.00;1.00;;;;;;;;5501936;25;44069;-76
2024/04/15 00:59:35;;;;;;;;;1.00;1.00;;;;;;;;5502188;25;44259;-75
2024/04/15 01:02:00;;;;;;;;;1.00;1.00;;;;;;;;5500117;25;43855;-75
2024/04/15 01:04:26;;;;;;;;;2.33;2.00;;;;;;;;5499932;25;43906;-76
2024/04/15 01:06:51;;;;;;;;;1.00;1.00;;;;;;;;5502093;25;43820;-76
2024/04/15 01:09:17;;;;;;;;;2.33;2.33;;;;;;;;5501623;25;44791;-76
2024/04/15 01:11:42;;;;;;;;;1.00;1.00;;;;;;;;5501909;25;43957;-76
2024/04/15 01:14:07;;;;;;;;;2.00;1.00;;;;;;;;5501973;25;43970;-76
2024/04/15 01:16:33;;;;;;;;;1.67;1.67;;;;;;;;5501547;25;43825;-75
2024/04/15 01:18:59;;;;;;;;;0.00;0.00;;;;;;;;5501890;25;44824;-75
2024/04/15 01:21:24;;;;;;;;;1.00;0.00;;;;;;;;5499884;25;43891;-75
2024/04/15 01:23:49;;;;;;;;;2.00;1.00;;;;;;;;5504070;25;43890;-75
2024/04/15 01:26:14;;;;;;;;;1.00;1.00;;;;;;;;5504765;25;43857;-76
2024/04/15 01:28:39;;;;;;;;;0.00;0.00;;;;;;;;5504953;25;43713;-76
2024/04/15 01:31:04;;;;;;;;;3.00;3.00;;;;;;;;5504848;25;43807;-75
2024/04/15 01:33:30;;;;;;;;;1.67;1.67;;;;;;;;5504725;25;43726;-76
2024/04/15 01:35:55;;;;;;;;;0.00;0.00;;;;;;;;5504336;25;43718;-75
2024/04/15 01:38:20;;;;;;;;;1.00;1.00;;;;;;;;5504935;25;44216;-76
2024/04/15 01:40:45;;;;;;;;;1.00;1.00;;;;;;;;5504446;25;43712;-75
2024/04/15 01:43:10;;;;;;;;;1.00;1.00;;;;;;;;5504803;25;44002;-76
2024/04/15 01:45:35;;;;;;;;;1.00;1.00;;;;;;;;5504642;25;43978;-75
2024/04/15 01:48:01;;;;;;;;;1.00;1.00;;;;;;;;5504591;25;43955;-76
2024/04/15 01:50:27;;;;;;;;;2.00;2.00;;;;;;;;5503985;25;43930;-76
2024/04/15 01:52:52;;;;;;;;;0.00;0.00;;;;;;;;5504710;25;43795;-75
2024/04/15 01:55:17;;;;;;;;;1.00;0.33;;;;;;;;5504170;25;43861;-75
2024/04/15 01:57:42;;;;;;;;;1.67;1.67;;;;;;;;5504237;25;43685;-75
2024/04/15 02:00:08;;;;;;;;;1.00;1.00;;;;;;;;5504823;25;43687;-75
2024/04/15 02:02:33;;;;;;;;;2.00;2.00;;;;;;;;5504292;25;44070;-76
2024/04/15 02:04:59;;;;;;;;;0.67;0.67;;;;;;;;5504148;25;44029;-75
2024/04/15 02:07:25;;;;;;;;;0.00;0.00;;;;;;;;5502455;25;44860;-76
2024/04/15 02:09:50;;;;;;;;;3.67;1.00;;;;;;;;5504120;25;43828;-75
2024/04/15 02:12:15;;;;;;;;;1.00;0.33;;;;;;;;5504671;25;44028;-76
2024/04/15 02:14:40;;;;;;;;;3.33;2.33;;;;;;;;5504307;25;44137;-76
2024/04/15 02:17:05;;;;;;;;;0.00;0.00;;;;;;;;5504371;25;44601;-76
2024/04/15 02:19:34;;;;;;;;;2.00;0.33;;;;;;;;5504073;25;43975;-76
2024/04/15 02:21:59;;;;;;;;;0.67;0.67;;;;;;;;5504392;25;43881;-76
2024/04/15 02:24:24;;;;;;;;;1.00;1.00;;;;;;;;5503854;25;43958;-76
2024/04/15 02:26:49;;;;;;;;;2.00;2.00;;;;;;;;5504017;25;44634;-76
2024/04/15 02:29:15;;;;;;;;;1.00;1.00;;;;;;;;5504282;25;43907;-76
2024/04/15 02:31:40;;;;;;;;;1.00;1.00;;;;;;;;5504420;25;43872;-76
2024/04/15 02:34:05;;;;;;;;;0.00;0.00;;;;;;;;5503462;25;43748;-77
2024/04/15 02:36:30;;;;;;;;;3.67;2.00;;;;;;;;5503763;25;44027;-76
2024/04/15 02:38:55;;;;;;;;;2.33;1.33;;;;;;;;5503794;25;43784;-76
2024/04/15 02:41:20;;;;;;;;;3.67;2.00;;;;;;;;5504407;25;43715;-76
2024/04/15 02:43:46;;;;;;;;;2.33;1.33;;;;;;;;5503888;25;43868;-76
2024/04/15 02:46:12;;;;;;;;;2.00;1.33;;;;;;;;5503813;25;44761;-76
2024/04/15 02:48:37;;;;;;;;;1.33;1.33;;;;;;;;5503639;25;43956;-75
2024/04/15 02:51:03;;;;;;;;;2.00;0.33;;;;;;;;5503794;25;43776;-76
2024/04/15 02:53:31;;;;;;;;;2.00;2.00;;;;;;;;5503643;25;44009;-76
2024/04/15 02:55:56;;;;;;;;;2.00;2.00;;;;;;;;5503488;25;43939;-76
2024/04/15 02:58:21;;;;;;;;;1.33;1.33;;;;;;;;5503941;25;43722;-76
2024/04/15 03:00:47;;;;;;;;;2.00;2.00;;;;;;;;5503808;25;43942;-75
2024/04/15 03:03:12;;;;;;;;;1.67;1.67;;;;;;;;5503281;25;44209;-75
2024/04/15 03:05:40;;;;;;;;;1.67;1.67;;;;;;;;5503658;25;43776;-75
2024/04/15 03:08:06;;;;;;;;;0.67;0.67;;;;;;;;5503832;25;43895;-76
2024/04/15 03:10:31;;;;;;;;;2.33;2.33;;;;;;;;5503625;25;43936;-76
2024/04/15 03:12:56;;;;;;;;;2.00;2.00;;;;;;;;5503337;25;43764;-75
2024/04/15 03:15:21;;;;;;;;;1.33;1.33;;;;;;;;5503635;25;43902;-76
2024/04/15 03:17:47;;;;;;;;;2.00;2.00;;;;;;;;5503745;25;43896;-76
2024/04/15 03:20:12;;;;;;;;;2.67;2.67;;;;;;;;5503634;25;43873;-75
2024/04/15 03:22:37;;;;;;;;;4.67;2.33;;;;;;;;5503442;25;43821;-76
2024/04/15 03:25:02;;;;;;;;;2.00;1.00;;;;;;;;5503344;25;44834;-75
2024/04/15 03:27:28;;;;;;;;;2.33;2.00;;;;;;;;5503525;25;43855;-75
2024/04/15 03:29:53;;;;;;;;;1.00;1.00;;;;;;;;5503795;25;43759;-75
2024/04/15 03:32:18;;;;;;;;;4.67;2.67;;;;;;;;5503432;25;43927;-75
2024/04/15 03:34:43;;;;;;;;;3.00;1.67;;;;;;;;5503256;25;44710;-76
2024/04/15 03:37:08;;;;;;;;;2.33;2.00;;;;;;;;5503626;25;43788;-76
2024/04/15 03:39:34;;;;;;;;;3.67;3.33;;;;;;;;5503344;25;43938;-76
2024/04/15 03:41:59;;;;;;;;;5.67;2.67;;;;;;;;5503362;25;44194;-76
2024/04/15 03:44:24;;;;;;;;;2.00;2.00;;;;;;;;5502770;25;44391;-76
2024/04/15 03:46:49;;;;;;;;;3.33;3.00;;;;;;;;5502562;25;43879;-76
2024/04/15 03:49:14;;;;;;;;;1.33;1.33;;;;;;;;5503237;25;43958;-76
2024/04/15 03:51:39;;;;;;;;;4.00;4.00;;;;;;;;5502631;25;44039;-76
2024/04/15 03:54:05;;;;;;;;;2.00;2.00;;;;;;;;5501085;25;44083;-76
2024/04/15 03:56:30;;;;;;;;;5.00;3.00;;;;;;;;5503195;25;43769;-76
2024/04/15 03:58:55;;;;;;;;;3.33;3.33;;;;;;;;5503507;25;43849;-76
2024/04/15 04:01:20;;;;;;;;;3.67;2.00;;;;;;;;5503073;25;44137;-76
2024/04/15 04:03:45;;;;;;;;;3.67;3.00;;;;;;;;5503281;25;43813;-76
2024/04/15 04:06:10;;;;;;;;;3.33;2.33;;;;;;;;5503226;25;43962;-76
2024/04/15 04:08:36;;;;;;;;;2.67;2.67;;;;;;;;5502959;25;44011;-77
2024/04/15 04:11:07;;;;;;;;;2.67;2.67;;;;;;;;5503162;25;43812;-76
2024/04/15 04:13:34;;;;;;;;;1.67;1.67;;;;;;;;5503269;25;44210;-76
2024/04/15 04:15:59;;;;;;;;;2.00;2.00;;;;;;;;5502956;25;43930;-76
2024/04/15 04:18:25;;;;;;;;;2.00;2.00;;;;;;;;5503012;25;43840;-76
2024/04/15 04:20:50;;;;;;;;;2.00;2.00;;;;;;;;5502872;25;43856;-76
2024/04/15 04:23:15;;;;;;;;;5.33;3.33;;;;;;;;5502544;25;44071;-76
2024/04/15 04:25:40;;;;;;;;;2.00;1.00;;;;;;;;5502739;25;43864;-76
2024/04/15 04:28:05;;;;;;;;;2.00;2.00;;;;;;;;5502734;25;43890;-76
2024/04/15 04:30:32;;;;;;;;;3.67;3.67;;;;;;;;5502356;25;43793;-76
2024/04/15 04:32:58;;;;;;;;;3.00;2.00;;;;;;;;5502619;25;44802;-76
2024/04/15 04:35:23;;;;;;;;;3.00;3.00;;;;;;;;5502513;25;43956;-76
2024/04/15 04:37:48;;;;;;;;;3.33;3.00;;;;;;;;5502819;25;43871;-76
2024/04/15 04:40:13;;;;;;;;;4.33;3.67;;;;;;;;5502386;25;43940;-76
2024/04/15 04:42:41;;;;;;;;;6.00;4.67;;;;;;;;5502531;25;43910;-76
2024/04/15 04:45:07;;;;;;;;;5.00;3.00;;;;;;;;5502395;25;43708;-76
2024/04/15 04:47:32;;;;;;;;;2.67;2.67;;;;;;;;5502667;25;43924;-77
2024/04/15 04:49:57;;;;;;;;;3.00;3.00;;;;;;;;5501953;25;43877;-76
2024/04/15 04:52:22;;;;;;;;;4.00;3.00;;;;;;;;5502124;25;44758;-76
2024/04/15 04:54:49;;;;;;;;;4.00;4.00;;;;;;;;5502025;25;44011;-76
2024/04/15 04:57:14;;;;;;;;;4.67;4.00;;;;;;;;5504143;25;43851;-76
2024/04/15 04:59:40;;;;;;;;;2.67;2.67;;;;;;;;5505265;25;43897;-76
2024/04/15 05:02:05;;;;;;;;;4.00;4.00;;;;;;;;5504736;25;43974;-76
2024/04/15 05:04:30;;;;;;;;;4.00;3.00;;;;;;;;5504845;25;43842;-77
2024/04/15 05:06:55;;;;;;;;;6.00;5.00;;;;;;;;5505349;25;43818;-76
2024/04/15 05:09:21;;;;;;;;;2.67;2.67;;;;;;;;5504707;25;43827;-76
2024/04/15 05:11:46;;;;;;;;;5.00;4.67;;;;;;;;5505017;25;43829;-76
2024/04/15 05:14:11;;;;;;;;;2.00;2.00;;;;;;;;5505096;25;43963;-76
2024/04/15 05:16:36;;;;;;;;;1.67;1.67;;;;;;;;5505203;25;43828;-76
2024/04/15 05:19:01;;;;;;;;;3.00;3.00;;;;;;;;5504793;25;43865;-76
2024/04/15 05:21:27;;;;;;;;;2.67;1.67;;;;;;;;5504924;25;43937;-76
2024/04/15 05:23:53;;;;;;;;;3.67;3.00;;;;;;;;5504639;25;43837;-76
2024/04/15 05:26:18;;;;;;;;;3.33;2.67;;;;;;;;5505208;25;43965;-76
2024/04/15 05:28:43;;;;;;;;;7.33;3.00;;;;;;;;5504714;25;44013;-76
2024/04/15 05:31:08;;;;;;;;;3.00;3.00;;;;;;;;5504777;25;45151;-76
2024/04/15 05:33:34;;;;;;;;;3.67;2.67;;;;;;;;5504870;25;43825;-76
2024/04/15 05:35:59;;;;;;;;;2.00;2.00;;;;;;;;5504738;25;43929;-76
2024/04/15 05:38:24;;;;;;;;;2.67;2.67;;;;;;;;5504555;25;43792;-75
2024/04/15 05:40:49;;;;;;;;;2.00;1.67;;;;;;;;5504638;25;44782;-75
2024/04/15 05:43:15;;;;;;;;;3.33;3.33;;;;;;;;5504788;25;43966;-76
2024/04/15 05:45:40;;;;;;;;;3.33;3.33;;;;;;;;5505101;25;43950;-76
2024/04/15 05:48:06;;;;;;;;;3.00;3.00;;;;;;;;5504565;25;44003;-75
2024/04/15 05:50:31;;;;;;;;;3.00;2.33;;;;;;;;5504221;25;43920;-76
2024/04/15 05:52:56;;;;;;;;;4.33;3.33;;;;;;;;5504629;25;43781;-76
2024/04/15 05:55:22;;;;;;;;;3.33;1.67;;;;;;;;5504553;25;44386;-76
2024/04/15 05:57:47;;;;;;;;;4.33;3.00;;;;;;;;5504382;25;43904;-76
2024/04/15 06:00:13;;;;;;;;;4.33;3.00;;;;;;;;5504253;25;44050;-75
2024/04/15 06:02:38;;;;;;;;;5.33;3.67;;;;;;;;5503404;25;44065;-76
2024/04/15 06:05:03;;;;;;;;;4.00;3.67;;;;;;;;5503115;25;43809;-76
2024/04/15 06:07:29;;;;;;;;;3.33;2.67;;;;;;;;5504231;25;43900;-75
2024/04/15 06:09:54;;;;;;;;;4.00;3.33;;;;;;;;5503818;25;44071;-76
2024/04/15 06:12:19;;;;;;;;;4.67;4.67;;;;;;;;5504348;25;43840;-76
2024/04/15 06:14:44;;;;;;;;;3.67;3.67;;;;;;;;5504434;25;43889;-76
2024/04/15 06:17:09;;;;;;;;;6.00;4.67;;;;;;;;5504370;25;43847;-75
2024/04/15 06:19:35;;;;;;;;;3.00;2.00;;;;;;;;5504373;25;44865;-76
2024/04/15 06:22:00;;;;;;;;;2.33;2.00;;;;;;;;5504303;25;43859;-75
2024/04/15 06:24:30;;;;;;;;;4.67;2.67;;;;;;;;5504334;25;43881;-76
2024/04/15 06:26:55;;;;;;;;;3.00;3.00;;;;;;;;5504496;25;43905;-75
2024/04/15 06:29:21;;;;;;;;;1.33;1.33;;;;;;;;5504185;25;44014;-76
2024/04/15 06:31:46;;;;;;;;;3.67;3.67;;;;;;;;5503898;25;43866;-76
2024/04/15 06:34:12;;;;;;;;;5.00;5.00;;;;;;;;5504064;25;43769;-76
2024/04/15 06:36:37;;;;;;;;;6.00;6.00;;;;;;;;5504082;25;43928;-75
2024/04/15 06:39:02;;;;;;;;;7.33;7.33;;;;;;;;5503781;25;44045;-76
2024/04/15 06:41:27;;;;;;;;;6.00;5.00;;;;;;;;5504300;25;43784;-76
2024/04/15 06:43:52;;;;;;;;;7.00;5.67;;;;;;;;5504277;25;43764;-76
2024/04/15 06:46:18;;;;;;;;;4.00;4.00;;;;;;;;5504114;25;43861;-76
2024/04/15 06:48:43;;;;;;;;;5.33;5.00;;;;;;;;5503662;25;44754;-77
2024/04/15 06:51:09;;;;;;;;;5.00;3.00;;;;;;;;5503383;25;43864;-76
2024/04/15 06:53:34;;;;;;;;;5.67;4.00;;;;;;;;5503774;25;43840;-76
2024/04/15 06:55:59;;;;;;;;;2.33;2.33;;;;;;;;5504098;25;43945;-76
2024/04/15 06:58:26;;;;;;;;;5.33;5.33;;;;;;;;5503650;25;43886;-75
2024/04/15 07:00:51;;;;;;;;;6.67;5.00;;;;;;;;5503814;25;43936;-76
2024/04/15 07:03:16;;;;;;;;;4.33;4.33;;;;;;;;5503910;25;43920;-77
2024/04/15 07:05:42;;;;;;;;;5.33;3.00;;;;;;;;5503860;25;44126;-76
2024/04/15 07:08:07;;;;;;;;;4.00;2.00;;;;;;;;5503577;25;44015;-75
2024/04/15 07:10:32;;;;;;;;;2.00;2.00;;;;;;;;5503881;25;43837;-76
2024/04/15 07:12:58;;;;;;;;;4.00;3.00;;;;;;;;5503860;25;43749;-75
2024/04/15 07:15:23;;;;;;;;;2.67;2.67;;;;;;;;5503627;25;44015;-75
2024/04/15 07:17:48;;;;;;;;;2.33;1.33;;;;;;;;5503590;25;43789;-75
2024/04/15 07:20:13;;;;;;;;;1.33;1.33;;;;;;;;5501907;25;43961;-75
2024/04/15 07:22:39;;;;;;;;;3.00;1.33;;;;;;;;5503773;25;43927;-75
2024/04/15 07:25:04;;;;;;;;;2.33;2.33;;;;;;;;5503615;25;43950;-75
2024/04/15 07:27:33;;;;;;;;;2.33;1.33;;;;;;;;5503402;25;44164;-75
2024/04/15 07:29:58;;;;;;;;;4.33;2.00;;;;;;;;5503418;25;43932;-75
2024/04/15 07:32:23;;;;;;;;;2.00;2.00;;;;;;;;5503401;25;43929;-75
2024/04/15 07:34:48;;;;;;;;;3.00;2.00;;;;;;;;5503341;25;43838;-75
2024/04/15 07:37:14;;;;;;;;;3.00;3.00;;;;;;;;5503172;25;43797;-76
2024/04/15 07:39:39;;;;;;;;;1.33;1.33;;;;;;;;5503438;25;43780;-75
2024/04/15 07:42:04;;;;;;;;;2.33;2.33;;;;;;;;5503735;25;43806;-75
2024/04/15 07:44:29;;;;;;;;;2.67;1.67;;;;;;;;5503535;25;44138;-75
2024/04/15 07:46:55;;;;;;;;;1.33;1.33;;;;;;;;5503666;25;43760;-74
2024/04/15 07:49:20;;;;;;;;;3.00;3.00;;;;;;;;5503303;25;44388;-74
2024/04/15 07:51:45;;;;;;;;;1.67;1.67;;;;;;;;5503719;25;43783;-74
2024/04/15 07:54:10;;;;;;;;;1.00;1.00;;;;;;;;5503193;25;43920;-74
2024/04/15 07:56:35;;;;;;;;;1.00;1.00;;;;;;;;5503226;25;44759;-74
2024/04/15 07:59:00;;;;;;;;;2.67;2.00;;;;;;;;5503369;25;43918;-74
2024/04/15 08:01:25;;;;;;;;;3.33;2.00;;;;;;;;5503166;25;43917;-74
2024/04/15 08:03:51;;;;;;;;;1.00;1.00;;;;;;;;5501106;25;43795;-75
2024/04/15 08:06:16;;;;;;;;;3.00;2.33;;;;;;;;5500483;25;44826;-74
2024/04/15 08:08:42;;;;;;;;;1.00;1.00;;;;;;;;5501105;25;43891;-74
2024/04/15 08:11:07;;;;;;;;;0.00;0.00;;;;;;;;5502952;25;44083;-74
2024/04/15 08:13:32;;;;;;;;;2.00;2.00;;;;;;;;5503290;25;43856;-75
2024/04/15 08:15:58;;;;;;;;;3.00;2.00;;;;;;;;5502896;25;44840;-73
2024/04/15 08:18:23;;;;;;;;;1.00;1.00;;;;;;;;5502813;25;43982;-73
2024/04/15 08:20:55;;;;;;;;;1.00;1.00;;;;;;;;5503061;25;44089;-75
2024/04/15 08:23:20;;;;;;;;;2.00;1.00;;;;;;;;5502785;25;43913;-73
2024/04/15 08:25:52;;;;;;;;;1.00;1.00;;;;;;;;5503152;25;44784;-73
2024/04/15 08:28:17;;;;;;;;;2.33;1.00;;;;;;;;5502078;25;44014;-73
2024/04/15 08:30:42;;;;;;;;;0.33;0.33;;;;;;;;5502398;25;43923;-75
2024/04/15 08:33:07;;;;;;;;;1.33;1.00;;;;;;;;5502060;25;43766;-75
2024/04/15 08:35:33;;;;;;;;;1.00;1.00;;;;;;;;5502163;25;44911;-74
2024/04/15 08:37:58;;;;;;;;;1.67;1.33;;;;;;;;5501843;25;43907;-74
2024/04/15 08:40:23;;;;;;;;;1.33;0.33;;;;;;;;5502692;25;43865;-74
2024/04/15 08:42:50;;;;;;;;;1.00;1.00;;;;;;;;5502570;25;43936;-74
2024/04/15 08:45:19;;;;;;;;;0.00;0.00;;;;;;;;5502436;25;44784;-73
2024/04/15 08:47:50;;;;;;;;;0.00;0.00;;;;;;;;5502443;25;43887;-74
2024/04/15 08:50:15;;;;;;;;;0.67;0.00;;;;;;;;5500273;25;43924;-74
2024/04/15 08:52:41;;;;;;;;;0.00;0.00;;;;;;;;5502209;25;43812;-74
2024/04/15 08:55:07;;;;;;;;;1.67;1.00;;;;;;;;5501489;25;44850;-74
2024/04/15 08:57:34;;;;;;;;;0.33;0.33;;;;;;;;5501974;25;43944;-74
2024/04/15 09:00:00;;;;;;;;;0.00;0.00;;;;;;;;5501534;25;43884;-74
2024/04/15 09:02:28;;;;;;;;;0.33;0.33;;;;;;;;5503389;25;43822;-75
2024/04/15 09:04:53;;;;;;;;;12.67;11.67;;;;;;;;5502953;25;43960;-78
2024/04/15 09:07:19;;;;;;;;;0.67;0.67;;;;;;;;5501477;25;43780;-78
2024/04/15 09:09:44;;;;;;;;;0.00;0.00;;;;;;;;5501426;25;43999;-75
2024/04/15 09:12:09;;;;;;;;;1.00;1.00;;;;;;;;5501810;25;43922;-79
2024/04/15 09:14:35;;;;;;;;;0.00;0.00;;;;;;;;5501916;25;43776;-80
2024/04/15 09:17:00;;;;;;;;;0.00;0.00;;;;;;;;5500161;25;43906;-79
2024/04/15 09:19:26;;;;;;;;;0.00;0.00;;;;;;;;5501807;25;43814;-78
2024/04/15 09:21:51;;;;;;;;;0.00;0.00;;;;;;;;5502370;25;43920;-78
2024/04/15 09:24:17;;;;;;;;;1.33;1.33;;;;;;;;5501917;25;43934;-80
2024/04/15 09:26:42;;;;;;;;;0.67;0.67;;;;;;;;5502110;25;43905;-80
2024/04/15 09:29:07;;;;;;;;;1.00;0.67;;;;;;;;5501887;25;44132;-78
2024/04/15 09:31:32;;;;;;;;;1.00;1.00;;;;;;;;5501496;25;44093;-76
2024/04/15 09:33:58;;;;;;;;;0.00;0.00;;;;;;;;5501279;25;43881;-78
2024/04/15 09:36:23;;;;;;;;;1.00;0.00;;;;;;;;5500949;25;43870;-78
2024/04/15 09:38:49;;;;;;;;;1.00;1.00;;;;;;;;5501326;25;43924;-78
2024/04/15 09:41:14;;;;;;;;;1.00;1.00;;;;;;;;5501431;25;43952;-78
2024/04/15 09:43:39;;;;;;;;;1.00;1.00;;;;;;;;5501955;25;44782;-78
2024/04/15 09:46:04;;;;;;;;;1.00;1.00;;;;;;;;5504799;25;43880;-77
2024/04/15 09:48:31;;;;;;;;;2.33;1.33;;;;;;;;5504521;25;43867;-79
2024/04/15 09:51:03;;;;;;;;;1.00;1.00;;;;;;;;5504261;25;44032;-77
2024/04/15 09:53:41;;;;;;;;;1.67;0.33;;;;;;;;5504487;25;45286;-77
2024/04/15 09:56:11;;;;;;;;;0.67;0.67;;;;;;;;5502749;25;44113;-79
2024/04/15 09:58:37;;;;;;;;;2.00;0.00;;;;;;;;5504662;25;43825;-81
2024/04/15 10:01:04;;;;;;;;;1.00;0.00;;;;;;;;5504640;25;43978;-78
2024/04/15 10:03:30;;;;;;;;;5.67;4.00;;;;;;;;5504386;25;44916;-80
2024/04/15 10:05:59;;;;;;;;;1.00;1.00;;;;;;;;5504398;25;43866;-80
2024/04/15 10:08:25;;;;;;;;;0.00;0.00;;;;;;;;5504631;25;44031;-78
2024/04/15 10:10:50;;;;;;;;;0.00;0.00;;;;;;;;5502577;25;44023;-77
2024/04/15 10:13:15;;;;;;;;;1.00;0.33;;;;;;;;5504230;25;44022;-80
2024/04/15 10:15:40;;;;;;;;;4.00;2.00;;;;;;;;5504342;25;43860;-77
2024/04/15 10:18:06;;;;;;;;;2.00;2.00;;;;;;;;5504383;25;43829;-77
2024/04/15 10:20:41;;;;;;;;;1.00;1.00;;;;;;;;5505216;25;44156;-77
2024/04/15 10:23:08;;;;;;;;;10.00;9.33;;;;;;;;5505669;25;44750;-74
2024/04/15 10:25:36;;;;;;;;;0.00;0.00;;;;;;;;5514063;25;43988;-75
2024/04/15 10:28:04;;;;;;;;;1.33;0.00;;;;;;;;5511746;25;43876;-75
2024/04/15 10:30:31;;;;;;;;;0.00;0.00;;;;;;;;5514398;25;43662;-75
2024/04/15 10:33:02;;;;;;;;;0.00;0.00;;;;;;;;5515435;25;43908;-75
2024/04/15 10:35:29;;;;;;;;;0.00;0.00;;;;;;;;5512500;25;43658;-74
2024/04/15 10:37:58;;;;;;;;;1.00;1.00;;;;;;;;5512153;25;44007;-75
2024/04/15 10:40:29;;;;;;;;;0.00;0.00;;;;;;;;5515036;25;44209;-75
2024/04/15 10:42:54;;;;;;;;;3.00;1.67;;;;;;;;5512369;25;43969;-74
2024/04/15 10:45:20;;;;;;;;;0.00;0.00;;;;;;;;5515936;25;43903;-75
2024/04/15 10:47:46;;;;;;;;;1.67;0.00;;;;;;;;5506190;25;43938;-75
2024/04/15 10:50:11;;;;;;;;;0.00;0.00;;;;;;;;5510138;25;43821;-76
2024/04/15 10:52:36;;;;;;;;;0.00;0.00;;;;;;;;5509155;25;43798;-74
2024/04/15 10:55:01;;;;;;;;;0.00;0.00;;;;;;;;5508777;25;43803;-74
2024/04/15 10:57:26;;;;;;;;;1.33;0.67;;;;;;;;5509346;25;43842;-74
2024/04/15 10:59:52;;;;;;;;;0.00;0.00;;;;;;;;5509156;25;43834;-77
2024/04/15 11:02:17;;;;;;;;;1.00;1.00;;;;;;;;5505059;25;43865;-76
2024/04/15 11:04:42;;;;;;;;;0.00;0.00;;;;;;;;5506657;25;43869;-76
2024/04/15 11:07:08;;;;;;;;;0.00;0.00;;;;;;;;5513395;25;43963;-75
2024/04/15 11:09:34;;;;;;;;;0.00;0.00;;;;;;;;5515768;25;43284;-76
2024/04/15 11:11:59;;;;;;;;;0.00;0.00;;;;;;;;5509806;25;43940;-75
2024/04/15 11:14:25;;;;;;;;;1.00;0.00;;;;;;;;5524008;25;44042;-75
2024/04/15 11:16:50;;;;;;;;;1.00;1.00;;;;;;;;5510204;25;43804;-77
2024/04/15 11:19:16;;;;;;;;;0.00;0.00;;;;;;;;5505636;25;43850;-75
2024/04/15 11:21:41;;;;;;;;;0.00;0.00;;;;;;;;5504458;25;43919;-75
2024/04/15 11:24:07;;;;;;;;;0.00;0.00;;;;;;;;5505333;25;44009;-75
2024/04/15 11:26:36;;;;;;;;;0.00;0.00;;;;;;;;5510218;25;43601;-75
2024/04/15 11:29:02;;;;;;;;;0.00;0.00;;;;;;;;5512931;25;43932;-77
2024/04/15 11:31:28;;;;;;;;;0.00;0.00;;;;;;;;5513615;25;43897;-79
2024/04/15 11:33:53;;;;;;;;;1.00;0.00;;;;;;;;5511720;25;43823;-78
2024/04/15 11:36:18;;;;;;;;;0.33;0.33;;;;;;;;5513679;25;43910;-78
2024/04/15 11:38:43;;;;;;;;;1.33;0.00;;;;;;;;5513629;25;43929;-78
2024/04/15 11:41:09;;;;;;;;;0.00;0.00;;;;;;;;5512039;25;45646;-78
2024/04/15 11:43:36;;;;;;;;;0.33;0.33;;;;;;;;5515187;25;43639;-77
2024/04/15 11:46:02;;;;;;;;;0.00;0.00;;;;;;;;5513814;25;43157;-78
2024/04/15 11:48:27;;;;;;;;;0.67;0.67;;;;;;;;5513766;25;43763;-77
2024/04/15 11:50:53;;;;;;;;;0.00;0.00;;;;;;;;5512463;25;44957;-78
2024/04/15 11:53:19;;;;;;;;;0.00;0.00;;;;;;;;5511527;25;43858;-77
2024/04/15 11:55:45;;;;;;;;;0.67;0.33;;;;;;;;5513796;25;43867;-78
2024/04/15 11:58:10;;;;;;;;;36.67;31.00;;;;;;;;5512681;25;43863;-79
2024/04/15 12:00:35;;;;;;;;;0.00;0.00;;;;;;;;5510938;25;45049;-78
2024/04/15 12:03:01;;;;;;;;;1.00;0.00;;;;;;;;5508724;25;43839;-76
2024/04/15 12:05:26;;;;;;;;;0.00;0.00;;;;;;;;5474477;26;43735;-77
2024/04/15 12:07:51;;;;;;;;;1.00;0.00;;;;;;;;5472763;25;43846;-77
2024/04/15 12:10:16;;;;;;;;;1.33;0.67;;;;;;;;5475725;26;43946;-75
2024/04/15 12:12:42;;;;;;;;;0.00;0.00;;;;;;;;5474510;26;43889;-75
2024/04/15 12:15:10;;;;;;;;;0.00;0.00;;;;;;;;5496378;25;44006;-75
2024/04/15 12:17:35;;;;;;;;;0.00;0.00;;;;;;;;5504276;25;43718;-76
2024/04/15 12:20:02;;;;;;;;;0.00;0.00;;;;;;;;5505373;25;43821;-77
2024/04/15 12:22:28;;;;;;;;;1.00;0.00;;;;;;;;5504739;25;43715;-76
2024/04/15 12:24:53;;;;;;;;;0.00;0.00;;;;;;;;5504102;25;43958;-77
2024/04/15 12:27:18;;;;;;;;;0.00;0.00;;;;;;;;5504365;25;44015;-76
2024/04/15 12:29:43;;;;;;;;;0.00;0.00;;;;;;;;5503531;25;43797;-75
2024/04/15 12:32:08;;;;;;;;;0.25;0.25;;;;;;;;5503389;25;43765;-75
2024/04/15 12:34:35;;;;;;;;;0.00;0.00;;;;;;;;5503460;25;44062;-75
2024/04/15 12:37:00;;;;;;;;;0.00;0.00;;;;;;;;5503032;25;43975;-75
2024/04/15 12:39:25;;;;;;;;;1.00;1.00;;;;;;;;5502643;25;43954;-75
2024/04/15 12:41:50;;;;;;;;;0.00;0.00;;;;;;;;5505363;25;43844;-75
2024/04/15 12:44:16;;;;;;;;;0.00;0.00;;;;;;;;5500556;25;44003;-75
2024/04/15 12:46:41;;;;;;;;;0.00;0.00;;;;;;;;5506768;25;43960;-77
2024/04/15 12:49:07;;;;;;;;;0.00;0.00;;;;;;;;5506475;25;43957;-76
2024/04/15 12:51:32;;;;;;;;;0.00;0.00;;;;;;;;5505651;25;43831;-75
2024/04/15 12:53:57;;;;;;;;;0.00;0.00;;;;;;;;5500062;25;44032;-75
2024/04/15 12:56:23;;;;;;;;;0.00;0.00;;;;;;;;5507825;25;43856;-75
2024/04/15 12:58:48;;;;;;;;;0.00;0.00;;;;;;;;5505630;25;43898;-75
2024/04/15 13:01:14;;;;;;;;;0.00;0.00;;;;;;;;5503390;25;43811;-75
2024/04/15 13:03:39;;;;;;;;;0.33;0.00;;;;;;;;5507258;25;44025;-75
2024/04/15 13:06:04;;;;;;;;;0.00;0.00;;;;;;;;5510833;25;43390;-75
2024/04/15 13:08:29;;;;;;;;;0.00;0.00;;;;;;;;5504414;25;44643;-76
2024/04/15 13:10:56;;;;;;;;;0.00;0.00;;;;;;;;5507276;25;43255;-75
2024/04/15 13:13:21;;;;;;;;;1.00;1.00;;;;;;;;5504442;25;43980;-76
2024/04/15 13:15:46;;;;;;;;;0.00;0.00;;;;;;;;5505825;25;43954;-75
2024/04/15 13:18:11;;;;;;;;;0.00;0.00;;;;;;;;5508746;25;44025;-76
2024/04/15 13:20:37;;;;;;;;;0.00;0.00;;;;;;;;5509807;25;43940;-76
2024/04/15 13:23:02;;;;;;;;;2.67;2.67;;;;;;;;5506501;25;44146;-75
2024/04/15 13:25:30;;;;;;;;;0.33;0.00;;;;;;;;5507430;25;43721;-76
2024/04/15 13:27:55;;;;;;;;;0.00;0.00;;;;;;;;5509056;25;44077;-75
2024/04/15 13:30:21;;;;;;;;;0.00;0.00;;;;;;;;5486106;25;43803;-75
2024/04/15 13:32:46;;;;;;;;;0.67;0.67;;;;;;;;5475775;26;43894;-76
2024/04/15 13:35:11;;;;;;;;;0.00;0.00;;;;;;;;5510687;25;43975;-76
2024/04/15 13:37:36;;;;;;;;;0.00;0.00;;;;;;;;5506440;25;44143;-75
2024/04/15 13:40:02;;;;;;;;;1.00;0.00;;;;;;;;5501831;25;44074;-75
2024/04/15 13:42:27;;;;;;;;;0.00;0.00;;;;;;;;5502818;25;43994;-78
2024/04/15 13:44:53;;;;;;;;;0.75;0.75;;;;;;;;5501871;25;44019;-75
2024/04/15 13:47:18;;;;;;;;;0.00;0.00;;;;;;;;5502065;25;44040;-78
2024/04/15 13:49:43;;;;;;;;;2.00;2.00;;;;;;;;5503873;25;43996;-77
2024/04/15 13:52:09;;;;;;;;;0.00;0.00;;;;;;;;5507774;25;44022;-76
2024/04/15 13:54:34;;;;;;;;;0.00;0.00;;;;;;;;5512732;25;43807;-77
2024/04/15 13:57:00;;;;;;;;;0.25;0.00;;;;;;;;5511995;25;43745;-77
2024/04/15 13:59:25;;;;;;;;;0.00;0.00;;;;;;;;5512406;25;43866;-75
2024/04/15 14:01:51;;;;;;;;;0.00;0.00;;;;;;;;5511997;25;43992;-75
2024/04/15 14:04:16;;;;;;;;;2.33;2.33;;;;;;;;5510923;25;44080;-75
2024/04/15 14:06:41;;;;;;;;;1.00;1.00;;;;;;;;5510171;25;44844;-79
2024/04/15 14:09:07;;;;;;;;;0.00;0.00;;;;;;;;5509399;25;43737;-75
2024/04/15 14:11:32;;;;;;;;;0.00;0.00;;;;;;;;5512519;25;43804;-76
2024/04/15 14:13:57;;;;;;;;;0.25;0.25;;;;;;;;5511348;25;43777;-75
2024/04/15 14:16:22;;;;;;;;;0.00;0.00;;;;;;;;5509964;25;44696;-75
2024/04/15 14:18:48;;;;;;;;;0.00;0.00;;;;;;;;5508950;25;43774;-77
2024/04/15 14:21:13;;;;;;;;;0.00;0.00;;;;;;;;5512483;25;43756;-78
2024/04/15 14:23:39;;;;;;;;;0.75;0.00;;;;;;;;5508530;25;43892;-75
2024/04/15 14:26:04;;;;;;;;;0.00;0.00;;;;;;;;5512313;25;44329;-75
2024/04/15 14:28:29;;;;;;;;;0.00;0.00;;;;;;;;5508793;25;43638;-75
2024/04/15 14:30:55;;;;;;;;;0.00;0.00;;;;;;;;5504810;25;43840;-79
2024/04/15 14:33:20;;;;;;;;;0.00;0.00;;;;;;;;5506487;25;43879;-76